Batam

Airport
ICAO code: 
WIDD
Summary
ICAO Region: 
APAC
Territory: 
Location: 
Batam, Riau, Sumatra,
Coordinates: 
Aerial View: 
1° 7' 21.538" N, 104° 7' 11.921" E
Metar
Observation
WIDD 170300Z 03009KT 9999 FEW014 29/24 Q1014 NOSIG
Station
HANG NADIM
Date/Time
2022-01-17 03:00:00
Wind direction
30°
Wind speed
09 kts
Lowest cloud amount
few clouds
Temperature
29°C
Dew point
24°C
Humidity
74%
QNH
1014 hPa
Weather condition
n/a

Description

Hang Nadim Airport, also known as Hang Nadim International Airport, is located in Batam, Riau Islands (part of Sumatra), Indonesia. It is the only airport on the island.

Climatology

Tropical Rainforest climate (Köppen climate classification Af) - almost no distinct seasons, average daily temperature around 27°C throughout the year. Extensive cloud cover and heavy rainfall prevent temperatures from rising much over 33°C. The diurnal temperature change is between 2°C and 5°C which is greater than the annual temperature range of 2°C. Rainfall is heavy and is usually convectional and in the afternoon.

Runways

Designator Length Width Surface Rops
4/22 4040 45 ASP Yes/Yes
Airport map: 
Aerial View: 

SKYbrary Partners:

Safety knowledge contributed by: